sensor_id;sensor_type;location;lat;lon;timestamp;P1;durP1;ratioP1;P2;durP2;ratioP2
66886;SDS011;67239;51.680;5.976;2023-07-29T00:01:19;4.00;;;2.80;;
66886;SDS011;67239;51.680;5.976;2023-07-29T00:03:48;4.55;;;3.03;;
66886;SDS011;67239;51.680;5.976;2023-07-29T00:06:15;5.65;;;3.08;;
66886;SDS011;67239;51.680;5.976;2023-07-29T00:08:42;3.30;;;2.95;;
66886;SDS011;67239;51.680;5.976;2023-07-29T00:11:09;3.85;;;3.45;;
66886;SDS011;67239;51.680;5.976;2023-07-29T00:13:36;4.20;;;3.20;;
66886;SDS011;67239;51.680;5.976;2023-07-29T00:16:04;3.80;;;2.95;;
66886;SDS011;67239;51.680;5.976;2023-07-29T00:18:31;3.10;;;2.80;;
66886;SDS011;67239;51.680;5.976;2023-07-29T00:20:58;4.63;;;3.22;;
66886;SDS011;67239;51.680;5.976;2023-07-29T00:23:25;3.58;;;3.00;;
66886;SDS011;67239;51.680;5.976;2023-07-29T00:25:53;7.70;;;3.50;;
66886;SDS011;67239;51.680;5.976;2023-07-29T00:28:20;5.57;;;3.63;;
66886;SDS011;67239;51.680;5.976;2023-07-29T00:30:49;4.53;;;3.13;;
66886;SDS011;67239;51.680;5.976;2023-07-29T00:33:16;5.82;;;3.13;;
66886;SDS011;67239;51.680;5.976;2023-07-29T00:35:43;5.45;;;3.20;;
66886;SDS011;67239;51.680;5.976;2023-07-29T00:38:11;4.10;;;3.25;;
66886;SDS011;67239;51.680;5.976;2023-07-29T00:40:38;6.43;;;3.50;;
66886;SDS011;67239;51.680;5.976;2023-07-29T00:43:05;6.03;;;3.25;;
66886;SDS011;67239;51.680;5.976;2023-07-29T00:45:35;3.90;;;3.25;;
66886;SDS011;67239;51.680;5.976;2023-07-29T00:48:03;4.95;;;3.40;;
66886;SDS011;67239;51.680;5.976;2023-07-29T00:50:32;6.75;;;3.70;;
66886;SDS011;67239;51.680;5.976;2023-07-29T00:53:00;6.65;;;3.13;;
66886;SDS011;67239;51.680;5.976;2023-07-29T00:55:28;3.72;;;3.33;;
66886;SDS011;67239;51.680;5.976;2023-07-29T00:57:55;6.82;;;3.10;;
66886;SDS011;67239;51.680;5.976;2023-07-29T01:00:22;4.70;;;3.40;;
66886;SDS011;67239;51.680;5.976;2023-07-29T01:02:51;4.68;;;3.70;;
66886;SDS011;67239;51.680;5.976;2023-07-29T01:05:25;4.65;;;3.92;;
66886;SDS011;67239;51.680;5.976;2023-07-29T01:11:08;4.50;;;3.42;;
66886;SDS011;67239;51.680;5.976;2023-07-29T01:13:53;5.00;;;3.72;;
66886;SDS011;67239;51.680;5.976;2023-07-29T01:16:39;3.50;;;3.17;;
66886;SDS011;67239;51.680;5.976;2023-07-29T01:19:23;5.60;;;3.67;;
66886;SDS011;67239;51.680;5.976;2023-07-29T01:22:10;5.10;;;3.72;;
66886;SDS011;67239;51.680;5.976;2023-07-29T01:24:39;6.07;;;3.65;;
66886;SDS011;67239;51.680;5.976;2023-07-29T01:27:07;4.63;;;3.95;;
66886;SDS011;67239;51.680;5.976;2023-07-29T01:29:34;6.70;;;3.90;;
66886;SDS011;67239;51.680;5.976;2023-07-29T01:32:04;6.35;;;3.60;;
66886;SDS011;67239;51.680;5.976;2023-07-29T01:34:53;5.50;;;3.58;;
66886;SDS011;67239;51.680;5.976;2023-07-29T01:37:53;5.07;;;3.83;;
66886;SDS011;67239;51.680;5.976;2023-07-29T01:40:27;4.35;;;3.88;;
66886;SDS011;67239;51.680;5.976;2023-07-29T01:42:56;4.20;;;3.70;;
66886;SDS011;67239;51.680;5.976;2023-07-29T01:45:24;5.65;;;3.80;;
66886;SDS011;67239;51.680;5.976;2023-07-29T01:47:54;7.90;;;3.80;;
66886;SDS011;67239;51.680;5.976;2023-07-29T01:50:21;6.60;;;3.40;;
66886;SDS011;67239;51.680;5.976;2023-07-29T01:52:49;6.95;;;3.95;;
66886;SDS011;67239;51.680;5.976;2023-07-29T01:55:16;7.18;;;4.00;;
66886;SDS011;67239;51.680;5.976;2023-07-29T01:57:44;4.60;;;4.00;;
66886;SDS011;67239;51.680;5.976;2023-07-29T02:00:11;7.63;;;4.10;;
66886;SDS011;67239;51.680;5.976;2023-07-29T02:02:43;4.07;;;3.60;;
66886;SDS011;67239;51.680;5.976;2023-07-29T02:05:11;6.63;;;4.20;;
66886;SDS011;67239;51.680;5.976;2023-07-29T02:07:38;7.18;;;3.92;;
66886;SDS011;67239;51.680;5.976;2023-07-29T02:10:06;4.50;;;4.00;;
66886;SDS011;67239;51.680;5.976;2023-07-29T02:12:34;5.90;;;4.20;;
66886;SDS011;67239;51.680;5.976;2023-07-29T02:15:01;4.93;;;4.13;;
66886;SDS011;67239;51.680;5.976;2023-07-29T02:17:30;6.43;;;4.47;;
66886;SDS011;67239;51.680;5.976;2023-07-29T02:19:57;7.32;;;4.20;;
66886;SDS011;67239;51.680;5.976;2023-07-29T02:22:25;6.20;;;4.15;;
66886;SDS011;67239;51.680;5.976;2023-07-29T02:24:53;7.05;;;4.78;;
66886;SDS011;67239;51.680;5.976;2023-07-29T02:27:20;7.57;;;4.68;;
66886;SDS011;67239;51.680;5.976;2023-07-29T02:29:47;8.80;;;4.32;;
66886;SDS011;67239;51.680;5.976;2023-07-29T02:32:14;4.80;;;3.88;;
66886;SDS011;67239;51.680;5.976;2023-07-29T02:34:42;7.10;;;4.10;;
66886;SDS011;67239;51.680;5.976;2023-07-29T02:37:09;7.68;;;4.55;;
66886;SDS011;67239;51.680;5.976;2023-07-29T02:39:36;7.20;;;4.38;;
66886;SDS011;67239;51.680;5.976;2023-07-29T02:42:04;6.28;;;4.40;;
66886;SDS011;67239;51.680;5.976;2023-07-29T02:44:31;4.70;;;4.20;;
66886;SDS011;67239;51.680;5.976;2023-07-29T02:46:59;6.57;;;4.47;;
66886;SDS011;67239;51.680;5.976;2023-07-29T02:49:26;6.63;;;3.90;;
66886;SDS011;67239;51.680;5.976;2023-07-29T02:51:53;6.22;;;4.60;;
66886;SDS011;67239;51.680;5.976;2023-07-29T02:54:20;10.57;;;4.60;;
66886;SDS011;67239;51.680;5.976;2023-07-29T02:56:47;5.63;;;4.70;;
66886;SDS011;67239;51.680;5.976;2023-07-29T02:59:17;7.97;;;4.63;;
66886;SDS011;67239;51.680;5.976;2023-07-29T03:01:45;7.60;;;4.50;;
66886;SDS011;67239;51.680;5.976;2023-07-29T03:04:12;6.15;;;4.25;;
66886;SDS011;67239;51.680;5.976;2023-07-29T03:06:42;5.82;;;4.20;;
66886;SDS011;67239;51.680;5.976;2023-07-29T03:09:09;6.10;;;4.05;;
66886;SDS011;67239;51.680;5.976;2023-07-29T03:11:36;4.97;;;3.88;;
66886;SDS011;67239;51.680;5.976;2023-07-29T03:14:03;5.95;;;4.03;;
66886;SDS011;67239;51.680;5.976;2023-07-29T03:16:30;4.88;;;3.80;;
66886;SDS011;67239;51.680;5.976;2023-07-29T03:18:59;5.22;;;4.13;;
66886;SDS011;67239;51.680;5.976;2023-07-29T03:21:27;6.75;;;4.57;;
66886;SDS011;67239;51.680;5.976;2023-07-29T03:23:54;7.22;;;4.22;;
66886;SDS011;67239;51.680;5.976;2023-07-29T03:26:21;6.95;;;4.18;;
66886;SDS011;67239;51.680;5.976;2023-07-29T03:28:48;5.65;;;4.53;;
66886;SDS011;67239;51.680;5.976;2023-07-29T03:31:15;4.90;;;4.40;;
66886;SDS011;67239;51.680;5.976;2023-07-29T03:33:43;6.68;;;4.57;;
66886;SDS011;67239;51.680;5.976;2023-07-29T03:36:10;8.27;;;4.47;;
66886;SDS011;67239;51.680;5.976;2023-07-29T03:38:37;7.22;;;4.68;;
66886;SDS011;67239;51.680;5.976;2023-07-29T03:41:08;8.00;;;4.80;;
66886;SDS011;67239;51.680;5.976;2023-07-29T03:43:35;6.47;;;4.53;;
66886;SDS011;67239;51.680;5.976;2023-07-29T03:46:03;6.30;;;4.60;;
66886;SDS011;67239;51.680;5.976;2023-07-29T03:48:30;7.35;;;5.15;;
66886;SDS011;67239;51.680;5.976;2023-07-29T03:51:03;9.00;;;5.05;;
66886;SDS011;67239;51.680;5.976;2023-07-29T03:53:30;6.45;;;4.90;;
66886;SDS011;67239;51.680;5.976;2023-07-29T03:55:57;8.10;;;5.00;;
66886;SDS011;67239;51.680;5.976;2023-07-29T03:58:24;7.20;;;4.97;;
66886;SDS011;67239;51.680;5.976;2023-07-29T04:00:52;7.15;;;4.90;;
66886;SDS011;67239;51.680;5.976;2023-07-29T04:03:19;5.55;;;5.03;;
66886;SDS011;67239;51.680;5.976;2023-07-29T04:05:47;6.75;;;5.13;;
66886;SDS011;67239;51.680;5.976;2023-07-29T04:08:15;7.15;;;5.10;;
66886;SDS011;67239;51.680;5.976;2023-07-29T04:10:42;7.22;;;5.00;;
66886;SDS011;67239;51.680;5.976;2023-07-29T04:13:09;8.38;;;4.97;;
66886;SDS011;67239;51.680;5.976;2023-07-29T04:15:36;7.93;;;5.00;;
66886;SDS011;67239;51.680;5.976;2023-07-29T04:18:04;5.07;;;4.57;;
66886;SDS011;67239;51.680;5.976;2023-07-29T04:20:31;9.18;;;5.20;;
66886;SDS011;67239;51.680;5.976;2023-07-29T04:22:58;7.05;;;4.75;;
66886;SDS011;67239;51.680;5.976;2023-07-29T04:25:27;6.00;;;4.80;;
66886;SDS011;67239;51.680;5.976;2023-07-29T04:27:54;7.68;;;5.00;;
66886;SDS011;67239;51.680;5.976;2023-07-29T04:30:24;7.10;;;5.00;;
66886;SDS011;67239;51.680;5.976;2023-07-29T04:32:51;6.35;;;4.95;;
66886;SDS011;67239;51.680;5.976;2023-07-29T04:35:19;9.27;;;4.82;;
66886;SDS011;67239;51.680;5.976;2023-07-29T04:37:47;5.47;;;4.57;;
66886;SDS011;67239;51.680;5.976;2023-07-29T04:40:15;7.30;;;4.60;;
66886;SDS011;67239;51.680;5.976;2023-07-29T04:42:42;6.95;;;4.35;;
66886;SDS011;67239;51.680;5.976;2023-07-29T04:45:10;7.35;;;5.10;;
66886;SDS011;67239;51.680;5.976;2023-07-29T04:47:37;7.15;;;5.20;;
66886;SDS011;67239;51.680;5.976;2023-07-29T04:50:04;6.60;;;5.00;;
66886;SDS011;67239;51.680;5.976;2023-07-29T04:52:32;7.88;;;4.97;;
66886;SDS011;67239;51.680;5.976;2023-07-29T04:55:00;10.02;;;4.97;;
66886;SDS011;67239;51.680;5.976;2023-07-29T04:57:27;5.70;;;4.50;;
66886;SDS011;67239;51.680;5.976;2023-07-29T04:59:54;5.00;;;4.13;;
66886;SDS011;67239;51.680;5.976;2023-07-29T05:02:22;6.15;;;4.35;;
66886;SDS011;67239;51.680;5.976;2023-07-29T05:04:49;6.72;;;4.30;;
66886;SDS011;67239;51.680;5.976;2023-07-29T05:07:16;5.28;;;3.50;;
66886;SDS011;67239;51.680;5.976;2023-07-29T05:09:44;6.15;;;3.88;;
66886;SDS011;67239;51.680;5.976;2023-07-29T05:12:11;6.53;;;3.60;;
66886;SDS011;67239;51.680;5.976;2023-07-29T05:14:38;5.40;;;3.80;;
66886;SDS011;67239;51.680;5.976;2023-07-29T05:17:05;5.57;;;4.15;;
66886;SDS011;67239;51.680;5.976;2023-07-29T05:19:32;6.65;;;3.85;;
66886;SDS011;67239;51.680;5.976;2023-07-29T05:21:59;5.15;;;3.88;;
66886;SDS011;67239;51.680;5.976;2023-07-29T05:24:27;7.53;;;3.40;;
66886;SDS011;67239;51.680;5.976;2023-07-29T05:26:54;5.90;;;3.55;;
66886;SDS011;67239;51.680;5.976;2023-07-29T05:29:21;6.85;;;3.40;;
66886;SDS011;67239;51.680;5.976;2023-07-29T05:31:51;4.75;;;3.42;;
66886;SDS011;67239;51.680;5.976;2023-07-29T05:34:18;5.68;;;3.58;;
66886;SDS011;67239;51.680;5.976;2023-07-29T05:36:45;5.00;;;3.20;;
66886;SDS011;67239;51.680;5.976;2023-07-29T05:39:13;5.43;;;3.35;;
66886;SDS011;67239;51.680;5.976;2023-07-29T05:41:40;5.38;;;3.03;;
66886;SDS011;67239;51.680;5.976;2023-07-29T05:44:07;4.30;;;3.33;;
66886;SDS011;67239;51.680;5.976;2023-07-29T05:46:36;4.15;;;3.70;;
66886;SDS011;67239;51.680;5.976;2023-07-29T05:49:04;7.57;;;3.47;;
66886;SDS011;67239;51.680;5.976;2023-07-29T05:51:35;7.07;;;3.25;;
66886;SDS011;67239;51.680;5.976;2023-07-29T05:54:02;8.23;;;3.45;;
66886;SDS011;67239;51.680;5.976;2023-07-29T05:56:29;5.20;;;3.50;;
66886;SDS011;67239;51.680;5.976;2023-07-29T05:58:58;6.38;;;3.53;;
66886;SDS011;67239;51.680;5.976;2023-07-29T06:01:25;4.00;;;3.38;;
66886;SDS011;67239;51.680;5.976;2023-07-29T06:03:53;6.43;;;3.50;;
66886;SDS011;67239;51.680;5.976;2023-07-29T06:06:20;3.60;;;3.25;;
66886;SDS011;67239;51.680;5.976;2023-07-29T06:08:47;4.45;;;3.20;;
66886;SDS011;67239;51.680;5.976;2023-07-29T06:11:14;4.75;;;3.47;;
66886;SDS011;67239;51.680;5.976;2023-07-29T06:13:41;6.43;;;3.45;;
66886;SDS011;67239;51.680;5.976;2023-07-29T06:16:11;4.15;;;3.50;;
66886;SDS011;67239;51.680;5.976;2023-07-29T06:18:42;4.00;;;3.13;;
66886;SDS011;67239;51.680;5.976;2023-07-29T06:21:09;4.22;;;3.25;;
66886;SDS011;67239;51.680;5.976;2023-07-29T06:23:39;4.53;;;3.22;;
66886;SDS011;67239;51.680;5.976;2023-07-29T06:26:06;5.55;;;3.30;;
66886;SDS011;67239;51.680;5.976;2023-07-29T06:28:33;4.32;;;2.70;;
66886;SDS011;67239;51.680;5.976;2023-07-29T06:31:01;5.18;;;2.72;;
66886;SDS011;67239;51.680;5.976;2023-07-29T06:33:28;7.05;;;3.30;;
66886;SDS011;67239;51.680;5.976;2023-07-29T06:35:55;3.58;;;2.85;;
66886;SDS011;67239;51.680;5.976;2023-07-29T06:38:22;4.13;;;2.92;;
66886;SDS011;67239;51.680;5.976;2023-07-29T06:40:50;3.55;;;2.60;;
66886;SDS011;67239;51.680;5.976;2023-07-29T06:43:17;5.03;;;2.80;;
66886;SDS011;67239;51.680;5.976;2023-07-29T06:45:45;3.10;;;2.35;;
66886;SDS011;67239;51.680;5.976;2023-07-29T06:48:12;3.97;;;2.40;;
66886;SDS011;67239;51.680;5.976;2023-07-29T06:50:39;6.32;;;2.78;;
66886;SDS011;67239;51.680;5.976;2023-07-29T06:53:10;5.05;;;2.35;;
66886;SDS011;67239;51.680;5.976;2023-07-29T06:55:37;3.85;;;2.60;;
66886;SDS011;67239;51.680;5.976;2023-07-29T06:58:04;6.40;;;2.50;;
66886;SDS011;67239;51.680;5.976;2023-07-29T07:00:31;3.38;;;2.35;;
66886;SDS011;67239;51.680;5.976;2023-07-29T07:02:58;4.47;;;2.38;;
66886;SDS011;67239;51.680;5.976;2023-07-29T07:05:26;4.00;;;2.60;;
66886;SDS011;67239;51.680;5.976;2023-07-29T07:07:53;2.97;;;2.30;;
66886;SDS011;67239;51.680;5.976;2023-07-29T07:10:20;4.93;;;2.80;;
66886;SDS011;67239;51.680;5.976;2023-07-29T07:12:47;3.78;;;2.85;;
66886;SDS011;67239;51.680;5.976;2023-07-29T07:15:14;3.08;;;2.10;;
66886;SDS011;67239;51.680;5.976;2023-07-29T07:17:42;4.63;;;2.95;;
66886;SDS011;67239;51.680;5.976;2023-07-29T07:20:09;3.50;;;2.63;;
66886;SDS011;67239;51.680;5.976;2023-07-29T07:22:37;4.70;;;2.83;;
66886;SDS011;67239;51.680;5.976;2023-07-29T07:25:04;4.88;;;3.20;;
66886;SDS011;67239;51.680;5.976;2023-07-29T07:27:34;5.68;;;3.45;;
66886;SDS011;67239;51.680;5.976;2023-07-29T07:30:03;3.28;;;2.92;;
66886;SDS011;67239;51.680;5.976;2023-07-29T07:32:30;5.63;;;3.70;;
66886;SDS011;67239;51.680;5.976;2023-07-29T07:34:58;5.15;;;3.40;;
66886;SDS011;67239;51.680;5.976;2023-07-29T07:37:25;6.40;;;3.65;;
66886;SDS011;67239;51.680;5.976;2023-07-29T07:39:52;4.82;;;3.45;;
66886;SDS011;67239;51.680;5.976;2023-07-29T07:42:19;7.68;;;3.55;;
66886;SDS011;67239;51.680;5.976;2023-07-29T07:44:47;4.20;;;2.80;;
66886;SDS011;67239;51.680;5.976;2023-07-29T07:47:14;3.85;;;2.80;;
66886;SDS011;67239;51.680;5.976;2023-07-29T07:49:43;4.22;;;3.15;;
66886;SDS011;67239;51.680;5.976;2023-07-29T07:52:10;5.38;;;3.28;;
66886;SDS011;67239;51.680;5.976;2023-07-29T07:54:37;4.63;;;2.95;;
66886;SDS011;67239;51.680;5.976;2023-07-29T07:57:04;4.15;;;2.85;;
66886;SDS011;67239;51.680;5.976;2023-07-29T07:59:32;3.70;;;2.65;;
66886;SDS011;67239;51.680;5.976;2023-07-29T08:01:59;5.90;;;2.97;;
66886;SDS011;67239;51.680;5.976;2023-07-29T08:04:26;3.42;;;2.38;;
66886;SDS011;67239;51.680;5.976;2023-07-29T08:06:53;3.53;;;2.40;;
66886;SDS011;67239;51.680;5.976;2023-07-29T08:09:20;4.68;;;2.40;;
66886;SDS011;67239;51.680;5.976;2023-07-29T08:11:47;2.50;;;2.03;;
66886;SDS011;67239;51.680;5.976;2023-07-29T08:14:14;2.90;;;2.00;;
66886;SDS011;67239;51.680;5.976;2023-07-29T08:16:41;3.63;;;2.20;;
66886;SDS011;67239;51.680;5.976;2023-07-29T08:19:08;3.40;;;2.38;;
66886;SDS011;67239;51.680;5.976;2023-07-29T08:21:36;3.15;;;1.75;;
66886;SDS011;67239;51.680;5.976;2023-07-29T08:24:03;2.88;;;1.85;;
66886;SDS011;67239;51.680;5.976;2023-07-29T08:26:30;3.78;;;1.98;;
66886;SDS011;67239;51.680;5.976;2023-07-29T08:28:57;3.10;;;1.90;;
66886;SDS011;67239;51.680;5.976;2023-07-29T08:31:24;2.25;;;1.50;;
66886;SDS011;67239;51.680;5.976;2023-07-29T08:33:52;3.25;;;1.50;;
66886;SDS011;67239;51.680;5.976;2023-07-29T08:36:20;5.40;;;1.73;;
66886;SDS011;67239;51.680;5.976;2023-07-29T08:38:47;3.83;;;1.77;;
66886;SDS011;67239;51.680;5.976;2023-07-29T08:41:31;3.45;;;1.88;;
66886;SDS011;67239;51.680;5.976;2023-07-29T08:44:25;4.28;;;1.60;;
66886;SDS011;67239;51.680;5.976;2023-07-29T08:46:57;3.53;;;1.85;;
66886;SDS011;67239;51.680;5.976;2023-07-29T08:49:26;3.00;;;1.67;;
66886;SDS011;67239;51.680;5.976;2023-07-29T08:51:55;3.08;;;1.90;;
66886;SDS011;67239;51.680;5.976;2023-07-29T08:54:24;3.05;;;1.45;;
66886;SDS011;67239;51.680;5.976;2023-07-29T08:56:52;2.63;;;1.48;;
66886;SDS011;67239;51.680;5.976;2023-07-29T08:59:20;2.22;;;1.50;;
66886;SDS011;67239;51.680;5.976;2023-07-29T09:01:47;5.55;;;1.58;;
66886;SDS011;67239;51.680;5.976;2023-07-29T09:04:16;3.10;;;1.80;;
66886;SDS011;67239;51.680;5.976;2023-07-29T09:06:44;2.15;;;1.60;;
66886;SDS011;67239;51.680;5.976;2023-07-29T09:09:14;2.65;;;1.45;;
66886;SDS011;67239;51.680;5.976;2023-07-29T09:11:41;1.48;;;1.30;;
66886;SDS011;67239;51.680;5.976;2023-07-29T09:14:08;3.00;;;1.50;;
66886;SDS011;67239;51.680;5.976;2023-07-29T09:16:36;2.75;;;1.33;;
66886;SDS011;67239;51.680;5.976;2023-07-29T09:19:05;1.67;;;1.40;;
66886;SDS011;67239;51.680;5.976;2023-07-29T09:21:32;2.60;;;1.40;;
66886;SDS011;67239;51.680;5.976;2023-07-29T09:24:03;3.47;;;1.40;;
66886;SDS011;67239;51.680;5.976;2023-07-29T09:26:31;2.75;;;1.25;;
66886;SDS011;67239;51.680;5.976;2023-07-29T09:28:59;2.13;;;1.10;;
66886;SDS011;67239;51.680;5.976;2023-07-29T09:31:28;1.48;;;1.02;;
66886;SDS011;67239;51.680;5.976;2023-07-29T09:33:57;2.85;;;1.25;;
66886;SDS011;67239;51.680;5.976;2023-07-29T09:36:26;2.42;;;1.30;;
66886;SDS011;67239;51.680;5.976;2023-07-29T09:38:54;2.58;;;1.27;;
66886;SDS011;67239;51.680;5.976;2023-07-29T09:41:26;2.40;;;1.10;;
66886;SDS011;67239;51.680;5.976;2023-07-29T09:44:01;1.50;;;1.08;;
66886;SDS011;67239;51.680;5.976;2023-07-29T09:49:04;2.67;;;1.25;;
66886;SDS011;67239;51.680;5.976;2023-07-29T09:51:39;1.20;;;0.93;;
66886;SDS011;67239;51.680;5.976;2023-07-29T09:54:08;2.55;;;0.90;;
66886;SDS011;67239;51.680;5.976;2023-07-29T09:56:39;2.10;;;0.95;;
66886;SDS011;67239;51.680;5.976;2023-07-29T09:59:11;1.45;;;1.00;;
66886;SDS011;67239;51.680;5.976;2023-07-29T10:01:41;1.20;;;0.80;;
66886;SDS011;67239;51.680;5.976;2023-07-29T10:04:09;3.08;;;0.93;;
66886;SDS011;67239;51.680;5.976;2023-07-29T10:06:39;2.20;;;0.90;;
66886;SDS011;67239;51.680;5.976;2023-07-29T10:09:11;1.83;;;0.70;;
66886;SDS011;67239;51.680;5.976;2023-07-29T10:11:39;4.03;;;1.25;;
66886;SDS011;67239;51.680;5.976;2023-07-29T10:14:08;2.10;;;0.95;;
66886;SDS011;67239;51.680;5.976;2023-07-29T10:16:39;1.63;;;0.80;;
66886;SDS011;67239;51.680;5.976;2023-07-29T10:19:08;1.30;;;0.90;;
66886;SDS011;67239;51.680;5.976;2023-07-29T10:21:37;1.88;;;0.90;;
66886;SDS011;67239;51.680;5.976;2023-07-29T10:24:09;1.20;;;0.80;;
66886;SDS011;67239;51.680;5.976;2023-07-29T10:26:46;4.43;;;0.80;;
66886;SDS011;67239;51.680;5.976;2023-07-29T10:29:19;2.47;;;0.80;;
66886;SDS011;67239;51.680;5.976;2023-07-29T10:31:48;1.55;;;0.90;;
66886;SDS011;67239;51.680;5.976;2023-07-29T10:34:20;2.15;;;0.90;;
66886;SDS011;67239;51.680;5.976;2023-07-29T10:36:49;7.93;;;1.15;;
66886;SDS011;67239;51.680;5.976;2023-07-29T10:39:18;1.20;;;0.80;;
66886;SDS011;67239;51.680;5.976;2023-07-29T10:49:45;1.10;;;0.77;;
66886;SDS011;67239;51.680;5.976;2023-07-29T10:52:27;1.88;;;1.00;;
66886;SDS011;67239;51.680;5.976;2023-07-29T10:55:01;1.88;;;1.00;;
66886;SDS011;67239;51.680;5.976;2023-07-29T10:57:31;1.40;;;0.90;;
66886;SDS011;67239;51.680;5.976;2023-07-29T11:00:01;1.90;;;1.17;;
66886;SDS011;67239;51.680;5.976;2023-07-29T11:02:33;1.83;;;0.95;;
66886;SDS011;67239;51.680;5.976;2023-07-29T11:05:21;1.48;;;1.10;;
66886;SDS011;67239;51.680;5.976;2023-07-29T11:07:49;1.60;;;1.10;;
66886;SDS011;67239;51.680;5.976;2023-07-29T11:10:16;1.73;;;1.10;;
66886;SDS011;67239;51.680;5.976;2023-07-29T11:15:19;1.92;;;1.08;;
66886;SDS011;67239;51.680;5.976;2023-07-29T11:17:58;3.15;;;1.00;;
66886;SDS011;67239;51.680;5.976;2023-07-29T11:20:28;1.73;;;0.90;;
66886;SDS011;67239;51.680;5.976;2023-07-29T11:23:01;4.40;;;1.10;;
66886;SDS011;67239;51.680;5.976;2023-07-29T11:25:31;2.25;;;1.10;;
66886;SDS011;67239;51.680;5.976;2023-07-29T11:28:00;2.20;;;1.00;;
66886;SDS011;67239;51.680;5.976;2023-07-29T11:30:32;1.92;;;0.95;;
66886;SDS011;67239;51.680;5.976;2023-07-29T11:33:00;1.65;;;0.95;;
66886;SDS011;67239;51.680;5.976;2023-07-29T11:35:28;2.00;;;0.85;;
66886;SDS011;67239;51.680;5.976;2023-07-29T11:37:55;1.77;;;1.10;;
66886;SDS011;67239;51.680;5.976;2023-07-29T11:40:25;1.40;;;0.90;;
66886;SDS011;67239;51.680;5.976;2023-07-29T11:42:52;1.13;;;0.98;;
66886;SDS011;67239;51.680;5.976;2023-07-29T11:45:22;1.65;;;1.08;;
66886;SDS011;67239;51.680;5.976;2023-07-29T11:48:01;1.20;;;0.82;;
66886;SDS011;67239;51.680;5.976;2023-07-29T11:50:29;1.40;;;0.90;;
66886;SDS011;67239;51.680;5.976;2023-07-29T11:52:56;1.25;;;0.80;;
66886;SDS011;67239;51.680;5.976;2023-07-29T11:55:25;1.77;;;0.95;;
66886;SDS011;67239;51.680;5.976;2023-07-29T11:57:52;1.55;;;0.80;;
66886;SDS011;67239;51.680;5.976;2023-07-29T12:00:19;2.30;;;0.85;;
66886;SDS011;67239;51.680;5.976;2023-07-29T12:02:48;2.60;;;0.90;;
66886;SDS011;67239;51.680;5.976;2023-07-29T12:05:17;2.20;;;1.00;;
66886;SDS011;67239;51.680;5.976;2023-07-29T12:07:53;1.90;;;0.95;;
66886;SDS011;67239;51.680;5.976;2023-07-29T12:10:21;1.10;;;0.82;;
66886;SDS011;67239;51.680;5.976;2023-07-29T12:12:49;1.50;;;1.02;;
66886;SDS011;67239;51.680;5.976;2023-07-29T12:15:27;1.95;;;0.90;;
66886;SDS011;67239;51.680;5.976;2023-07-29T12:17:56;1.20;;;0.98;;
66886;SDS011;67239;51.680;5.976;2023-07-29T12:20:26;4.57;;;1.05;;
66886;SDS011;67239;51.680;5.976;2023-07-29T12:22:56;1.30;;;0.90;;
66886;SDS011;67239;51.680;5.976;2023-07-29T12:25:28;1.55;;;0.85;;
66886;SDS011;67239;51.680;5.976;2023-07-29T12:28:06;2.05;;;1.20;;
66886;SDS011;67239;51.680;5.976;2023-07-29T12:30:40;0.85;;;0.40;;
66886;SDS011;67239;51.680;5.976;2023-07-29T12:33:09;0.60;;;0.20;;
66886;SDS011;67239;51.680;5.976;2023-07-29T12:35:37;1.00;;;0.20;;
66886;SDS011;67239;51.680;5.976;2023-07-29T12:38:06;0.70;;;0.30;;
66886;SDS011;67239;51.680;5.976;2023-07-29T12:40:37;0.30;;;0.20;;
66886;SDS011;67239;51.680;5.976;2023-07-29T12:43:07;1.10;;;0.30;;
66886;SDS011;67239;51.680;5.976;2023-07-29T12:45:38;0.47;;;0.30;;
66886;SDS011;67239;51.680;5.976;2023-07-29T12:48:07;0.65;;;0.30;;
66886;SDS011;67239;51.680;5.976;2023-07-29T12:50:39;1.13;;;0.30;;
66886;SDS011;67239;51.680;5.976;2023-07-29T12:53:08;3.72;;;0.80;;
66886;SDS011;67239;51.680;5.976;2023-07-29T12:55:38;1.42;;;0.50;;
66886;SDS011;67239;51.680;5.976;2023-07-29T12:58:06;3.13;;;0.90;;
66886;SDS011;67239;51.680;5.976;2023-07-29T13:00:35;2.97;;;0.88;;
66886;SDS011;67239;51.680;5.976;2023-07-29T13:03:02;5.95;;;1.20;;
66886;SDS011;67239;51.680;5.976;2023-07-29T13:05:32;6.32;;;1.60;;
66886;SDS011;67239;51.680;5.976;2023-07-29T13:07:59;7.32;;;2.13;;
66886;SDS011;67239;51.680;5.976;2023-07-29T13:10:30;3.08;;;1.38;;
66886;SDS011;67239;51.680;5.976;2023-07-29T13:12:57;7.20;;;1.75;;
66886;SDS011;67239;51.680;5.976;2023-07-29T13:15:27;5.47;;;2.03;;
66886;SDS011;67239;51.680;5.976;2023-07-29T13:17:55;2.80;;;1.25;;
66886;SDS011;67239;51.680;5.976;2023-07-29T13:20:22;4.47;;;1.30;;
66886;SDS011;67239;51.680;5.976;2023-07-29T13:22:49;3.55;;;0.95;;
66886;SDS011;67239;51.680;5.976;2023-07-29T13:25:16;3.97;;;1.23;;
66886;SDS011;67239;51.680;5.976;2023-07-29T13:27:44;3.38;;;1.35;;
66886;SDS011;67239;51.680;5.976;2023-07-29T13:30:11;3.40;;;1.10;;
66886;SDS011;67239;51.680;5.976;2023-07-29T13:32:38;3.03;;;0.88;;
66886;SDS011;67239;51.680;5.976;2023-07-29T13:35:05;2.05;;;1.00;;
66886;SDS011;67239;51.680;5.976;2023-07-29T13:37:33;2.45;;;0.80;;
66886;SDS011;67239;51.680;5.976;2023-07-29T13:40:00;2.45;;;1.20;;
66886;SDS011;67239;51.680;5.976;2023-07-29T13:42:29;2.03;;;1.10;;
66886;SDS011;67239;51.680;5.976;2023-07-29T13:44:56;3.83;;;1.30;;
66886;SDS011;67239;51.680;5.976;2023-07-29T13:47:23;2.15;;;1.00;;
66886;SDS011;67239;51.680;5.976;2023-07-29T13:49:50;2.38;;;1.10;;
66886;SDS011;67239;51.680;5.976;2023-07-29T13:52:18;1.73;;;0.85;;
66886;SDS011;67239;51.680;5.976;2023-07-29T13:54:46;1.58;;;1.10;;
66886;SDS011;67239;51.680;5.976;2023-07-29T13:57:13;2.92;;;1.02;;
66886;SDS011;67239;51.680;5.976;2023-07-29T13:59:40;2.33;;;1.25;;
66886;SDS011;67239;51.680;5.976;2023-07-29T14:02:07;2.03;;;1.00;;
66886;SDS011;67239;51.680;5.976;2023-07-29T14:04:34;1.50;;;1.17;;
66886;SDS011;67239;51.680;5.976;2023-07-29T14:07:01;1.65;;;1.10;;
66886;SDS011;67239;51.680;5.976;2023-07-29T14:09:29;1.25;;;0.93;;
66886;SDS011;67239;51.680;5.976;2023-07-29T14:11:57;1.52;;;1.20;;
66886;SDS011;67239;51.680;5.976;2023-07-29T14:14:24;1.27;;;1.02;;
66886;SDS011;67239;51.680;5.976;2023-07-29T14:16:51;2.05;;;1.10;;
66886;SDS011;67239;51.680;5.976;2023-07-29T14:19:19;2.10;;;1.30;;
66886;SDS011;67239;51.680;5.976;2023-07-29T14:21:46;2.60;;;1.35;;
66886;SDS011;67239;51.680;5.976;2023-07-29T14:24:14;1.73;;;1.35;;
66886;SDS011;67239;51.680;5.976;2023-07-29T14:26:46;1.75;;;1.23;;
66886;SDS011;67239;51.680;5.976;2023-07-29T14:29:13;1.92;;;1.35;;
66886;SDS011;67239;51.680;5.976;2023-07-29T14:31:40;1.50;;;1.27;;
66886;SDS011;67239;51.680;5.976;2023-07-29T14:34:08;3.78;;;1.30;;
66886;SDS011;67239;51.680;5.976;2023-07-29T14:36:36;2.55;;;1.02;;
66886;SDS011;67239;51.680;5.976;2023-07-29T14:39:04;1.20;;;1.02;;
66886;SDS011;67239;51.680;5.976;2023-07-29T14:41:32;1.40;;;1.20;;
66886;SDS011;67239;51.680;5.976;2023-07-29T14:43:59;1.30;;;1.20;;
66886;SDS011;67239;51.680;5.976;2023-07-29T14:46:26;2.20;;;1.30;;
66886;SDS011;67239;51.680;5.976;2023-07-29T14:48:53;1.52;;;1.05;;
66886;SDS011;67239;51.680;5.976;2023-07-29T14:51:21;1.95;;;0.90;;
66886;SDS011;67239;51.680;5.976;2023-07-29T14:53:49;2.72;;;1.00;;
66886;SDS011;67239;51.680;5.976;2023-07-29T14:56:16;1.60;;;0.90;;
66886;SDS011;67239;51.680;5.976;2023-07-29T14:58:44;1.13;;;1.02;;
66886;SDS011;67239;51.680;5.976;2023-07-29T15:01:14;3.58;;;1.15;;
66886;SDS011;67239;51.680;5.976;2023-07-29T15:03:41;1.55;;;1.10;;
66886;SDS011;67239;51.680;5.976;2023-07-29T15:06:12;3.22;;;1.00;;
66886;SDS011;67239;51.680;5.976;2023-07-29T15:08:39;1.10;;;1.00;;
66886;SDS011;67239;51.680;5.976;2023-07-29T15:11:06;2.35;;;0.90;;
66886;SDS011;67239;51.680;5.976;2023-07-29T15:13:33;1.88;;;1.20;;